Byron, Illinois
Current Conditions -  °F | °C
As of 6:54 AM on Friday 24 Oct 2014 (Local Time) from KRFD Reporting Station
Haze Haze  
Wind Chill: 47°   Ceiling: 500
Heat Index: 47°   Visibility: 1mi
Dew Point: 45°   Wind: 0mph
Humidity: 93%   Direction: NA
Pressure: 30.08"   Gusts: NA
Location:  42.13°N, 89.26°W
Report Text: KRFD 241154Z 00000KT 1SM R01/4500VP6000FT BR OVC005 08/07 A3008 RMK AO2 SLP187 70008 T00830072 10083 20039 53001
Loading
Personal Weather Stations






























Interactive Weather Map
Tropical Storm Tracking
New forecast layout! Learn more

10-Day Weather Forecast

Advertisements
Track Severe Weather on mobile